Sv.knyaz Vladimir — UBKI2 — position and weather

sailwx.info

Track history (hours):
 
Tides and Currents Weather Stations Pressure Air Temp Water Temp Dewpoint Dewpoint Depression Visibility Wind Speed Wind Dir Waves Ship Positions

Sv.knyaz Vladimir

Last reported at 2014-Jul-17 08:16 UTC. Time now 2014-Jul-23 01:11 UTC.
Position N 44°58' E 036°31'.

Length 128 m; draft 3.3 m.

Type: Cargo ship. MMSI: 273350360.

Date/timePositionNaut miles runAvg speedWind from/ knotsBaromVisibWave heightAir tempDewpointWater temp
2014-Jul-17 08:16N 44°58' E 036°31'710.0
2014-Jul-17 07:33N 44°51' E 036°32'22 9.3
2014-Jul-17 05:11N 44°37' E 036°07'6 9.3
2014-Jul-17 04:32N 44°34' E 036°00'9 9.1
2014-Jul-17 03:33N 44°29' E 035°50'9 9.0
2014-Jul-17 02:33N 44°24' E 035°39'9 9.3
2014-Jul-17 01:33N 44°19' E 035°28'9 9.3
2014-Jul-17 00:33N 44°14' E 035°17'9 9.1
2014-Jul-16 23:34N 44°09' E 035°07'9 8.9
2014-Jul-16 22:33N 44°04' E 034°57'9 9.1
2014-Jul-16 21:33N 43°59' E 034°46'9 9.5
2014-Jul-16 20:33N 43°54' E 034°35'10 9.6
2014-Jul-16 19:29N 43°48' E 034°23'  
2014-Jul-13 17:06N 38°37' E 025°04'18 9.7
2014-Jul-13 15:12N 38°21' E 024°53'610.0
2014-Jul-13 14:33N 38°15' E 024°49'  
2014-Jul-11 01:32N 36°24' E 014°16'13 9.2
2014-Jul-11 00:07N 36°29' E 014°01'467 9.6
2014-Jul-08 23:30N 37°34' E 004°22'29 8.6
2014-Jul-08 20:05N 37°36' E 003°45'33 8.9
2014-Jul-08 16:22N 37°34' E 003°03'151 9.5
2014-Jul-08 00:27N 37°34' W 000°07'8 9.1
2014-Jul-07 23:33N 37°34' W 000°17'11 9.2
2014-Jul-07 22:20N 37°30' W 000°30'7 9.4
2014-Jul-07 21:33N 37°30' W 000°40'10 9.6
2014-Jul-07 20:32N 37°30' W 000°52'  
Track history (hours):
 
Tides and Currents Weather Stations Pressure Air Temp Water Temp Dewpoint Dewpoint Depression Visibility Wind Speed Wind Dir Waves Ship Positions

Sv.knyaz Vladimir

Last reported at 2014-Jul-17 08:16 UTC. Time now 2014-Jul-23 01:11 UTC.
Position N 44°58' E 036°31'.

Length 128 m; draft 3.3 m.

Type: Cargo ship. MMSI: 273350360.

Date/timePositionNaut miles runAvg speedWind from/ knotsBaromVisibWave heightAir tempDewpointWater temp
2014-Jul-17 08:16N 44°58' E 036°31'710.0
2014-Jul-17 07:33N 44°51' E 036°32'22 9.3
2014-Jul-17 05:11N 44°37' E 036°07'6 9.3
2014-Jul-17 04:32N 44°34' E 036°00'9 9.1
2014-Jul-17 03:33N 44°29' E 035°50'9 9.0
2014-Jul-17 02:33N 44°24' E 035°39'9 9.3
2014-Jul-17 01:33N 44°19' E 035°28'9 9.3
2014-Jul-17 00:33N 44°14' E 035°17'9 9.1
2014-Jul-16 23:34N 44°09' E 035°07'9 8.9
2014-Jul-16 22:33N 44°04' E 034°57'9 9.1
2014-Jul-16 21:33N 43°59' E 034°46'9 9.5
2014-Jul-16 20:33N 43°54' E 034°35'10 9.6
2014-Jul-16 19:29N 43°48' E 034°23'  
2014-Jul-13 17:06N 38°37' E 025°04'18 9.7
2014-Jul-13 15:12N 38°21' E 024°53'610.0
2014-Jul-13 14:33N 38°15' E 024°49'  
2014-Jul-11 01:32N 36°24' E 014°16'13 9.2
2014-Jul-11 00:07N 36°29' E 014°01'467 9.6
2014-Jul-08 23:30N 37°34' E 004°22'29 8.6
2014-Jul-08 20:05N 37°36' E 003°45'33 8.9
2014-Jul-08 16:22N 37°34' E 003°03'151 9.5
2014-Jul-08 00:27N 37°34' W 000°07'8 9.1
2014-Jul-07 23:33N 37°34' W 000°17'11 9.2
2014-Jul-07 22:20N 37°30' W 000°30'7 9.4
2014-Jul-07 21:33N 37°30' W 000°40'10 9.6
2014-Jul-07 20:32N 37°30' W 000°52'  

Dump ship's entire track history